Time;durP1;ratioP1;P1;durP2;ratioP2;P2;SDS_P1;SDS_P2;PMS_P1;PMS_P2;Temp;Humidity;BMP_temperature;BMP_pressure;BME280_temperature;BME280_humidity;BME280_pressure;Samples;Min_cycle;Max_cycle;Signal;HPM_P1;HPM_P2
2021/12/29 00:01:24;;;;;;;11.82;8.30;;;;;;;;;;4908678;29;20044;-73
2021/12/29 00:03:52;;;;;;;9.73;8.48;;;;;;;;;;4909534;29;20052;-76
2021/12/29 00:06:19;;;;;;;10.90;8.77;;;;;;;;;;4904056;29;20045;-76
2021/12/29 00:08:46;;;;;;;10.15;8.13;;;;;;;;;;4909779;29;20048;-76
2021/12/29 00:11:13;;;;;;;11.38;9.13;;;;;;;;;;4913296;29;20044;-75
2021/12/29 00:13:40;;;;;;;10.18;7.32;;;;;;;;;;4910986;29;20148;-76
2021/12/29 00:16:07;;;;;;;9.18;7.75;;;;;;;;;;4907236;29;20037;-75
2021/12/29 00:18:35;;;;;;;8.50;6.22;;;;;;;;;;4908729;29;20041;-75
2021/12/29 00:21:04;;;;;;;5.95;5.32;;;;;;;;;;4909833;29;20056;-75
2021/12/29 00:23:32;;;;;;;8.32;7.05;;;;;;;;;;4913121;29;20083;-76
2021/12/29 00:26:18;;;;;;;13.55;11.23;;;;;;;;;;4909761;29;20040;-75
2021/12/29 00:28:45;;;;;;;15.50;12.18;;;;;;;;;;4905189;29;20055;-75
2021/12/29 00:31:12;;;;;;;21.38;15.13;;;;;;;;;;4906761;29;20048;-75
2021/12/29 00:34:19;;;;;;;17.95;15.93;;;;;;;;;;4829897;29;20562;-75
2021/12/29 00:37:04;;;;;;;21.35;16.65;;;;;;;;;;4838739;29;20186;-75
2021/12/29 00:39:57;;;;;;;21.20;16.45;;;;;;;;;;4880748;29;20060;-75
2021/12/29 00:42:49;;;;;;;19.00;14.80;;;;;;;;;;4889710;29;20496;-75
2021/12/29 00:45:54;;;;;;;17.55;14.73;;;;;;;;;;4908374;29;20449;-75
2021/12/29 00:48:24;;;;;;;17.63;14.48;;;;;;;;;;4916276;29;20499;-75
2021/12/29 00:50:51;;;;;;;17.23;14.90;;;;;;;;;;4905094;29;20048;-75
2021/12/29 00:53:18;;;;;;;16.73;12.88;;;;;;;;;;4916294;29;20044;-76
2021/12/29 00:55:45;;;;;;;13.18;11.85;;;;;;;;;;4916626;29;20048;-75
2021/12/29 00:58:12;;;;;;;11.90;9.40;;;;;;;;;;4916422;29;20041;-75
2021/12/29 01:00:40;;;;;;;10.52;7.07;;;;;;;;;;4916117;29;20522;-75
2021/12/29 01:03:09;;;;;;;9.00;7.75;;;;;;;;;;4918830;29;20389;-76
2021/12/29 01:05:36;;;;;;;9.77;7.32;;;;;;;;;;4920471;29;20056;-75
2021/12/29 01:08:03;;;;;;;9.98;6.57;;;;;;;;;;4920067;29;20119;-75
2021/12/29 01:10:31;;;;;;;9.73;5.72;;;;;;;;;;4920407;29;20414;-75
2021/12/29 01:13:00;;;;;;;6.78;5.90;;;;;;;;;;4919919;29;20379;-75
2021/12/29 01:15:37;;;;;;;7.72;6.32;;;;;;;;;;4920101;29;20052;-75
2021/12/29 01:18:05;;;;;;;9.50;7.30;;;;;;;;;;4919719;29;20068;-76
2021/12/29 01:20:33;;;;;;;6.45;5.72;;;;;;;;;;4919817;29;20051;-75
2021/12/29 01:23:01;;;;;;;7.07;6.15;;;;;;;;;;4920117;29;20095;-75
2021/12/29 01:25:29;;;;;;;6.88;5.97;;;;;;;;;;4949983;29;20149;-75
2021/12/29 01:27:56;;;;;;;7.05;6.35;;;;;;;;;;4919990;29;20056;-75
2021/12/29 01:30:23;;;;;;;8.73;7.82;;;;;;;;;;4919479;29;20135;-75
2021/12/29 01:32:50;;;;;;;9.13;7.63;;;;;;;;;;4919482;29;20439;-76
2021/12/29 01:35:17;;;;;;;9.10;7.85;;;;;;;;;;4919338;29;20056;-76
2021/12/29 01:37:44;;;;;;;7.43;6.72;;;;;;;;;;4919643;29;20051;-76
2021/12/29 01:40:14;;;;;;;8.75;7.93;;;;;;;;;;4919478;29;20054;-76
2021/12/29 01:42:42;;;;;;;19.45;17.52;;;;;;;;;;4919820;29;20075;-76
2021/12/29 01:45:09;;;;;;;13.07;11.85;;;;;;;;;;4919368;29;20036;-76
2021/12/29 01:47:36;;;;;;;13.65;11.05;;;;;;;;;;4919542;29;20052;-76
2021/12/29 01:50:05;;;;;;;12.90;11.70;;;;;;;;;;4919630;29;20161;-76
2021/12/29 01:52:37;;;;;;;12.30;10.95;;;;;;;;;;4919477;29;20040;-74
2021/12/29 01:55:10;;;;;;;47.05;23.13;;;;;;;;;;4919497;29;20048;-75
2021/12/29 01:57:37;;;;;;;21.02;12.27;;;;;;;;;;4919284;29;20055;-76
2021/12/29 02:00:08;;;;;;;15.57;9.93;;;;;;;;;;4919089;29;20056;-76
2021/12/29 02:02:37;;;;;;;17.52;11.50;;;;;;;;;;4918961;29;20407;-76
2021/12/29 02:05:05;;;;;;;15.40;10.82;;;;;;;;;;4919389;29;20071;-77
2021/12/29 02:07:32;;;;;;;17.73;11.82;;;;;;;;;;4918779;29;20407;-76
2021/12/29 02:09:59;;;;;;;16.10;13.32;;;;;;;;;;4919321;29;20059;-76
2021/12/29 02:12:27;;;;;;;13.05;9.55;;;;;;;;;;4918628;29;20523;-76
2021/12/29 02:14:54;;;;;;;17.48;15.65;;;;;;;;;;4918239;29;20040;-76
2021/12/29 02:17:21;;;;;;;10.52;9.52;;;;;;;;;;4919082;29;20048;-75
2021/12/29 02:19:48;;;;;;;7.55;6.68;;;;;;;;;;4918563;29;20051;-76
2021/12/29 02:22:36;;;;;;;8.85;7.95;;;;;;;;;;4918539;29;20050;-76
2021/12/29 02:25:21;;;;;;;10.10;8.63;;;;;;;;;;4918660;29;20403;-76
2021/12/29 02:27:53;;;;;;;9.07;8.05;;;;;;;;;;4918980;29;20399;-76
2021/12/29 02:30:23;;;;;;;11.43;8.88;;;;;;;;;;4918566;29;20048;-76
2021/12/29 02:32:54;;;;;;;8.57;7.78;;;;;;;;;;4918559;29;20079;-76
2021/12/29 02:35:22;;;;;;;11.73;8.80;;;;;;;;;;4918262;29;20385;-76
2021/12/29 02:37:50;;;;;;;10.45;9.23;;;;;;;;;;4918528;29;20131;-76
2021/12/29 02:40:17;;;;;;;8.85;7.78;;;;;;;;;;4918526;29;20096;-76
2021/12/29 02:42:44;;;;;;;16.80;14.25;;;;;;;;;;4918868;29;20051;-76
2021/12/29 02:45:18;;;;;;;28.42;18.17;;;;;;;;;;4918523;29;20148;-76
2021/12/29 02:47:45;;;;;;;84.87;46.30;;;;;;;;;;4918949;29;20064;-76
2021/12/29 02:50:17;;;;;;;30.27;22.17;;;;;;;;;;4916886;29;20096;-75
2021/12/29 02:52:46;;;;;;;15.48;11.35;;;;;;;;;;4918623;29;20044;-75
2021/12/29 02:55:14;;;;;;;9.73;8.43;;;;;;;;;;4918188;29;20047;-75
2021/12/29 02:57:41;;;;;;;9.18;8.18;;;;;;;;;;4918305;29;20059;-75
2021/12/29 03:00:12;;;;;;;10.20;8.23;;;;;;;;;;4918530;29;20432;-75
2021/12/29 03:02:39;;;;;;;9.18;8.25;;;;;;;;;;4917796;29;20491;-76
2021/12/29 03:05:06;;;;;;;9.65;7.70;;;;;;;;;;4917438;29;20143;-76
2021/12/29 03:07:33;;;;;;;9.65;8.02;;;;;;;;;;4917935;29;20406;-76
2021/12/29 03:10:00;;;;;;;9.52;8.63;;;;;;;;;;4917914;29;20403;-76
2021/12/29 03:12:27;;;;;;;10.00;8.88;;;;;;;;;;4917933;29;20044;-74
2021/12/29 03:14:57;;;;;;;7.80;6.93;;;;;;;;;;4918185;29;20450;-74
2021/12/29 03:17:24;;;;;;;9.18;8.27;;;;;;;;;;4917605;29;20052;-74
2021/12/29 03:19:51;;;;;;;10.27;7.95;;;;;;;;;;4917842;29;20076;-75
2021/12/29 03:22:18;;;;;;;7.68;6.90;;;;;;;;;;4917899;29;20494;-75
2021/12/29 03:24:45;;;;;;;7.15;6.38;;;;;;;;;;4917263;29;20052;-75
2021/12/29 03:27:12;;;;;;;8.23;7.43;;;;;;;;;;4916823;29;20499;-75
2021/12/29 03:29:39;;;;;;;6.57;5.57;;;;;;;;;;4917230;29;20044;-75
2021/12/29 03:32:09;;;;;;;7.78;6.85;;;;;;;;;;4917411;29;20071;-75
2021/12/29 03:34:36;;;;;;;7.50;6.28;;;;;;;;;;4917278;29;20043;-76
2021/12/29 03:37:03;;;;;;;8.48;6.53;;;;;;;;;;4917603;29;20460;-76
2021/12/29 03:39:37;;;;;;;6.72;5.57;;;;;;;;;;4917108;29;20044;-76
2021/12/29 03:42:04;;;;;;;;;;;;;;;;;;4917983;29;20044;-76
2021/12/29 03:44:31;;;;;;;8.70;6.93;;;;;;;;;;4917197;29;20285;-76
2021/12/29 03:46:58;;;;;;;8.60;7.28;;;;;;;;;;4917307;29;20054;-76
2021/12/29 03:49:25;;;;;;;10.43;9.10;;;;;;;;;;4916911;29;20043;-75
2021/12/29 03:51:52;;;;;;;13.38;10.18;;;;;;;;;;4916802;29;20056;-75
2021/12/29 03:54:19;;;;;;;9.90;7.78;;;;;;;;;;4917210;29;20510;-75
2021/12/29 03:56:46;;;;;;;8.75;7.47;;;;;;;;;;4916927;29;20048;-74
2021/12/29 03:59:13;;;;;;;11.85;7.32;;;;;;;;;;4917183;29;20048;-76
2021/12/29 04:01:39;;;;;;;7.07;6.40;;;;;;;;;;4916723;29;20044;-76
2021/12/29 04:04:07;;;;;;;7.00;6.30;;;;;;;;;;4916978;29;20054;-76
2021/12/29 04:06:33;;;;;;;7.30;6.60;;;;;;;;;;4916590;29;20044;-74
2021/12/29 04:09:00;;;;;;;9.13;7.43;;;;;;;;;;4916724;29;20088;-74
2021/12/29 04:11:27;;;;;;;8.20;7.03;;;;;;;;;;4916574;29;20051;-73
2021/12/29 04:13:54;;;;;;;13.25;7.45;;;;;;;;;;4916660;29;20058;-74
2021/12/29 04:16:21;;;;;;;8.98;7.97;;;;;;;;;;4916792;29;20086;-74
2021/12/29 04:21:48;;;;;;;12.73;8.48;;;;;;;;;;4885620;29;20079;-74
2021/12/29 04:24:15;;;;;;;7.65;6.82;;;;;;;;;;4916750;29;20048;-74
2021/12/29 04:26:42;;;;;;;11.00;9.45;;;;;;;;;;4916860;29;20099;-74
2021/12/29 04:29:11;;;;;;;9.52;8.27;;;;;;;;;;4916468;29;20054;-74
2021/12/29 04:31:38;;;;;;;9.75;8.30;;;;;;;;;;4916305;29;20545;-75
2021/12/29 04:34:06;;;;;;;8.60;7.78;;;;;;;;;;4916204;29;20048;-75
2021/12/29 04:36:33;;;;;;;7.05;6.45;;;;;;;;;;4916177;29;20048;-76
2021/12/29 04:39:02;;;;;;;7.90;7.10;;;;;;;;;;4904645;29;20048;-75
2021/12/29 04:41:29;;;;;;;8.30;6.80;;;;;;;;;;4909414;29;20040;-75
2021/12/29 04:43:56;;;;;;;6.32;5.72;;;;;;;;;;4909913;29;20040;-75
2021/12/29 04:46:35;;;;;;;7.50;6.80;;;;;;;;;;4916683;29;20052;-75
2021/12/29 04:49:03;;;;;;;5.95;5.45;;;;;;;;;;4916429;29;20072;-76
2021/12/29 04:51:35;;;;;;;6.38;5.65;;;;;;;;;;4916237;29;20066;-76
2021/12/29 04:54:06;;;;;;;7.43;6.00;;;;;;;;;;4916689;29;20395;-76
2021/12/29 04:56:34;;;;;;;6.53;5.20;;;;;;;;;;4906885;29;20079;-76
2021/12/29 04:59:01;;;;;;;5.40;4.95;;;;;;;;;;4916395;29;20550;-76
2021/12/29 05:01:28;;;;;;;6.15;5.00;;;;;;;;;;4915978;29;20048;-76
2021/12/29 05:03:55;;;;;;;5.32;4.82;;;;;;;;;;4916640;29;20048;-75
2021/12/29 05:09:27;;;;;;;6.40;5.72;;;;;;;;;;4858111;29;20057;-75
2021/12/29 05:11:54;;;;;;;5.55;4.88;;;;;;;;;;4857778;29;20047;-75
2021/12/29 05:14:21;;;;;;;8.20;5.05;;;;;;;;;;4876936;29;20123;-74
2021/12/29 05:16:48;;;;;;;5.93;5.35;;;;;;;;;;4913890;29;20407;-74
2021/12/29 05:19:15;;;;;;;6.03;5.43;;;;;;;;;;4916465;29;20168;-75
2021/12/29 05:21:43;;;;;;;6.88;6.18;;;;;;;;;;4915823;29;20514;-75
2021/12/29 05:24:10;;;;;;;6.85;5.57;;;;;;;;;;4916281;29;20044;-76
2021/12/29 05:26:37;;;;;;;5.82;5.22;;;;;;;;;;4916094;29;20096;-76
2021/12/29 05:29:04;;;;;;;5.90;5.13;;;;;;;;;;4915889;29;20044;-76
2021/12/29 05:31:32;;;;;;;5.47;4.18;;;;;;;;;;4915896;29;20510;-76
2021/12/29 05:33:59;;;;;;;5.00;4.40;;;;;;;;;;4915846;29;20116;-76
2021/12/29 05:36:26;;;;;;;6.65;5.05;;;;;;;;;;4915879;29;20100;-76
2021/12/29 05:38:55;;;;;;;5.25;4.45;;;;;;;;;;4916085;29;20048;-76
2021/12/29 05:41:22;;;;;;;6.65;4.45;;;;;;;;;;4916003;29;20072;-76
2021/12/29 05:43:49;;;;;;;5.18;4.50;;;;;;;;;;4916097;29;20094;-76
2021/12/29 05:46:16;;;;;;;5.53;4.93;;;;;;;;;;4915877;29;20044;-76
2021/12/29 05:48:45;;;;;;;4.65;4.03;;;;;;;;;;4916291;29;20602;-74
2021/12/29 05:51:13;;;;;;;5.38;4.25;;;;;;;;;;4919364;29;20384;-75
2021/12/29 05:53:41;;;;;;;5.22;4.72;;;;;;;;;;4916424;29;20060;-72
2021/12/29 05:56:08;;;;;;;5.78;4.97;;;;;;;;;;4904419;29;20051;-70
2021/12/29 05:58:36;;;;;;;6.18;4.82;;;;;;;;;;4909172;29;20429;-73
2021/12/29 06:01:04;;;;;;;6.10;4.30;;;;;;;;;;4907606;29;20051;-76
2021/12/29 06:03:31;;;;;;;5.25;4.43;;;;;;;;;;4911913;29;20094;-73
2021/12/29 06:05:58;;;;;;;4.28;3.88;;;;;;;;;;4911259;29;20044;-77
2021/12/29 06:08:25;;;;;;;5.07;4.57;;;;;;;;;;4910746;29;20055;-74
2021/12/29 06:10:52;;;;;;;6.03;4.32;;;;;;;;;;4917098;29;20048;-75
2021/12/29 06:13:19;;;;;;;6.22;5.63;;;;;;;;;;4912724;29;20064;-77
2021/12/29 06:15:46;;;;;;;5.95;5.35;;;;;;;;;;4909698;29;20053;-76
2021/12/29 06:18:14;;;;;;;4.82;4.32;;;;;;;;;;4910535;29;20081;-75
2021/12/29 06:20:41;;;;;;;4.70;3.78;;;;;;;;;;4911175;29;20045;-69
2021/12/29 06:23:12;;;;;;;5.35;4.45;;;;;;;;;;4905805;29;20064;-70
2021/12/29 06:25:39;;;;;;;8.13;4.60;;;;;;;;;;4908976;29;20448;-72
2021/12/29 06:28:06;;;;;;;6.88;4.63;;;;;;;;;;4915768;29;20036;-72
2021/12/29 06:30:33;;;;;;;6.40;5.25;;;;;;;;;;4912917;29;20084;-73
2021/12/29 06:33:00;;;;;;;7.22;5.07;;;;;;;;;;4906953;29;20080;-73
2021/12/29 06:35:27;;;;;;;8.05;7.25;;;;;;;;;;4906689;29;20067;-70
2021/12/29 06:37:54;;;;;;;5.13;4.63;;;;;;;;;;4910988;29;20076;-70
2021/12/29 06:40:21;;;;;;;5.82;4.40;;;;;;;;;;4911129;29;20440;-73
2021/12/29 06:42:48;;;;;;;4.47;3.70;;;;;;;;;;4908596;29;20049;-70
2021/12/29 06:45:15;;;;;;;6.25;5.00;;;;;;;;;;4902343;29;20395;-72
2021/12/29 06:47:42;;;;;;;7.85;6.20;;;;;;;;;;4915534;29;20112;-74
2021/12/29 06:50:09;;;;;;;5.13;4.57;;;;;;;;;;4914660;29;20044;-67
2021/12/29 06:52:36;;;;;;;6.97;5.35;;;;;;;;;;4915053;29;20040;-69
